FD617 YBRM-YLBD
Flight info
| Callsign | FD617 |
|---|---|
| Flight time | N/A |
| Altitude | 13000 |
| Route | YBRM |
| Aircraft | B350/L-SBGRW/S |
Departure
| Time | N/A |
|---|---|
| Airport | Broome International Airport (YBRM) |
Arrival
| Time | 2026-05-06 08:06 |
|---|---|
| Airport | Lombadina Airport (YLBD) |
| Time | Latitude | Longitude | Altitude | Speed | Heading |
|---|---|---|---|---|---|
| 2026-05-06 07:48 | -17.44101 | 122.47246 | 13008 ft | 322 kts | 23° |
| 2026-05-06 07:48 | -17.42045 | 122.48241 | 13006 ft | 322 kts | 24° |
| 2026-05-06 07:49 | -17.40017 | 122.49223 | 13003 ft | 321 kts | 24° |
| 2026-05-06 07:49 | -17.37992 | 122.50202 | 13005 ft | 321 kts | 24° |
| 2026-05-06 07:49 | -17.35941 | 122.51195 | 13002 ft | 321 kts | 24° |
| 2026-05-06 07:49 | -17.33913 | 122.52175 | 13001 ft | 321 kts | 24° |
| 2026-05-06 07:50 | -17.31890 | 122.53153 | 13000 ft | 321 kts | 24° |
| 2026-05-06 07:50 | -17.29845 | 122.54143 | 12995 ft | 321 kts | 24° |
| 2026-05-06 07:50 | -17.27813 | 122.55125 | 12992 ft | 321 kts | 24° |
| 2026-05-06 07:50 | -17.25784 | 122.56104 | 12995 ft | 321 kts | 24° |
| 2026-05-06 07:51 | -17.23736 | 122.57095 | 12993 ft | 321 kts | 24° |
| 2026-05-06 07:51 | -17.21696 | 122.58079 | 12994 ft | 321 kts | 24° |
| 2026-05-06 07:51 | -17.19653 | 122.59067 | 12991 ft | 321 kts | 24° |
| 2026-05-06 07:51 | -17.17636 | 122.60040 | 12990 ft | 321 kts | 24° |
| 2026-05-06 07:52 | -17.15589 | 122.61028 | 12987 ft | 321 kts | 24° |
| 2026-05-06 07:52 | -17.13553 | 122.62010 | 12993 ft | 321 kts | 24° |
| 2026-05-06 07:52 | -17.11523 | 122.62989 | 12990 ft | 321 kts | 24° |
| 2026-05-06 07:52 | -17.09491 | 122.63969 | 12991 ft | 321 kts | 24° |
| 2026-05-06 07:53 | -17.07455 | 122.64951 | 12990 ft | 321 kts | 24° |
| 2026-05-06 07:53 | -17.05419 | 122.65932 | 12993 ft | 321 kts | 23° |
| 2026-05-06 07:53 | -17.03378 | 122.66916 | 12996 ft | 320 kts | 24° |
| 2026-05-06 07:53 | -17.01341 | 122.67897 | 12997 ft | 320 kts | 24° |
| 2026-05-06 07:54 | -16.99311 | 122.68875 | 12996 ft | 320 kts | 24° |
| 2026-05-06 07:54 | -16.97280 | 122.69853 | 12999 ft | 320 kts | 24° |
| 2026-05-06 07:54 | -16.95263 | 122.70824 | 12998 ft | 320 kts | 24° |
| 2026-05-06 07:54 | -16.93223 | 122.71809 | 12999 ft | 320 kts | 24° |
| 2026-05-06 07:55 | -16.91186 | 122.72791 | 12997 ft | 320 kts | 24° |
| 2026-05-06 07:55 | -16.89175 | 122.73759 | 12994 ft | 320 kts | 23° |
| 2026-05-06 07:55 | -16.87124 | 122.74746 | 12989 ft | 321 kts | 24° |
| 2026-05-06 07:55 | -16.85092 | 122.75723 | 12849 ft | 313 kts | 24° |
| 2026-05-06 07:56 | -16.83154 | 122.76656 | 12457 ft | 304 kts | 24° |
| 2026-05-06 07:56 | -16.81270 | 122.77561 | 12080 ft | 294 kts | 24° |
| 2026-05-06 07:56 | -16.79418 | 122.78451 | 11701 ft | 285 kts | 24° |
| 2026-05-06 07:56 | -16.77630 | 122.79310 | 11326 ft | 278 kts | 24° |
| 2026-05-06 07:57 | -16.75890 | 122.80145 | 10958 ft | 273 kts | 24° |
| 2026-05-06 07:57 | -16.74200 | 122.80957 | 10596 ft | 268 kts | 24° |
| 2026-05-06 07:57 | -16.72502 | 122.81773 | 10228 ft | 264 kts | 24° |
| 2026-05-06 07:57 | -16.70868 | 122.82558 | 9861 ft | 256 kts | 24° |
| 2026-05-06 07:58 | -16.69253 | 122.83333 | 9485 ft | 247 kts | 25° |
| 2026-05-06 07:58 | -16.67710 | 122.84073 | 9115 ft | 240 kts | 25° |
| 2026-05-06 07:58 | -16.66211 | 122.84792 | 8706 ft | 237 kts | 25° |
| 2026-05-06 07:58 | -16.64701 | 122.85518 | 8264 ft | 226 kts | 25° |
| 2026-05-06 07:59 | -16.63412 | 122.86137 | 8403 ft | 200 kts | 25° |
| 2026-05-06 07:59 | -16.62142 | 122.86732 | 8025 ft | 201 kts | 22° |
| 2026-05-06 07:59 | -16.60834 | 122.87220 | 7681 ft | 200 kts | 11° |
| 2026-05-06 07:59 | -16.59423 | 122.87171 | 7207 ft | 208 kts | 350° |
| 2026-05-06 08:00 | -16.57933 | 122.86689 | 6081 ft | 243 kts | 342° |
| 2026-05-06 08:00 | -16.56373 | 122.86158 | 5991 ft | 219 kts | 348° |
| 2026-05-06 08:00 | -16.55042 | 122.85448 | 5199 ft | 240 kts | 322° |
| 2026-05-06 08:00 | -16.53815 | 122.84309 | 4811 ft | 232 kts | 320° |
| 2026-05-06 08:01 | -16.52657 | 122.83124 | 4330 ft | 230 kts | 315° |
| 2026-05-06 08:01 | -16.51576 | 122.82220 | 4891 ft | 170 kts | 338° |
| 2026-05-06 08:01 | -16.50461 | 122.81982 | 4452 ft | 181 kts | 7° |
| 2026-05-06 08:01 | -16.49249 | 122.82207 | 4299 ft | 165 kts | 24° |
| 2026-05-06 08:02 | -16.48385 | 122.82838 | 4240 ft | 151 kts | 49° |
| 2026-05-06 08:02 | -16.47741 | 122.83800 | 3668 ft | 175 kts | 62° |
| 2026-05-06 08:02 | -16.47339 | 122.85014 | 3454 ft | 180 kts | 77° |
| 2026-05-06 08:02 | -16.47204 | 122.86307 | 3258 ft | 183 kts | 86° |
| 2026-05-06 08:03 | -16.47313 | 122.87664 | 2993 ft | 190 kts | 96° |
| 2026-05-06 08:03 | -16.47517 | 122.88899 | 2728 ft | 196 kts | 99° |
| 2026-05-06 08:03 | -16.47861 | 122.90263 | 2453 ft | 202 kts | 104° |
| 2026-05-06 08:03 | -16.48348 | 122.91685 | 2105 ft | 209 kts | 110° |
| 2026-05-06 08:04 | -16.48932 | 122.93082 | 1813 ft | 212 kts | 107° |
| 2026-05-06 08:04 | -16.49464 | 122.94516 | 1486 ft | 216 kts | 108° |
| 2026-05-06 08:04 | -16.50017 | 122.95956 | 1386 ft | 207 kts | 108° |
| 2026-05-06 08:04 | -16.50538 | 122.97284 | 1444 ft | 192 kts | 110° |
| 2026-05-06 08:05 | -16.51500 | 122.98090 | 1543 ft | 184 kts | 175° |
| 2026-05-06 08:05 | -16.52559 | 122.97415 | 1213 ft | 186 kts | 247° |
| 2026-05-06 08:05 | -16.52547 | 122.96240 | 1039 ft | 157 kts | 290° |
| 2026-05-06 08:05 | -16.52285 | 122.95177 | 544 ft | 151 kts | 288° |
| 2026-05-06 08:06 | -16.52028 | 122.94206 | 346 ft | 126 kts | 291° |
| 2026-05-06 08:06 | -16.51804 | 122.93362 | 222 ft | 114 kts | 291° |
| 2026-05-06 08:06 | -16.51591 | 122.92587 | 149 ft | 103 kts | 287° |
| 2026-05-06 08:06 | -16.51463 | 122.92112 | 136 ft | 20 kts | 283° |
| 2026-05-06 08:07 | -16.51422 | 122.91966 | 133 ft | 6 kts | 285° |
| 2026-05-06 08:07 | -16.51435 | 122.91919 | 132 ft | 7 kts | 199° |
| 2026-05-06 08:07 | -16.51507 | 122.91905 | 132 ft | 13 kts | 176° |
| 2026-05-06 08:07 | -16.51565 | 122.91890 | 132 ft | 9 kts | 255° |
| 2026-05-06 08:08 | -16.51536 | 122.91856 | 131 ft | 10 kts | 6° |
| 2026-05-06 08:08 | -16.51497 | 122.91872 | 131 ft | 1 kts | 66° |
| 2026-05-06 08:08 | -16.51498 | 122.91886 | 132 ft | 1 kts | 108° |
| 2026-05-06 08:08 | -16.51499 | 122.91888 | 132 ft | 0 kts | 106° |